sensor_id;sensor_type;location;lat;lon;timestamp;P1;durP1;ratioP1;P2;durP2;ratioP2
12591;SDS011;6361;52.120;5.108;2024-03-02T00:02:11;3.85;;;1.77;;
12591;SDS011;6361;52.120;5.108;2024-03-02T00:04:37;4.63;;;1.70;;
12591;SDS011;6361;52.120;5.108;2024-03-02T00:07:02;3.17;;;1.95;;
12591;SDS011;6361;52.120;5.108;2024-03-02T00:09:28;4.72;;;1.70;;
12591;SDS011;6361;52.120;5.108;2024-03-02T00:11:54;2.78;;;1.60;;
12591;SDS011;6361;52.120;5.108;2024-03-02T00:14:19;3.10;;;1.40;;
12591;SDS011;6361;52.120;5.108;2024-03-02T00:16:45;2.53;;;1.10;;
12591;SDS011;6361;52.120;5.108;2024-03-02T00:19:10;2.30;;;0.63;;
12591;SDS011;6361;52.120;5.108;2024-03-02T00:21:36;1.67;;;0.60;;
12591;SDS011;6361;52.120;5.108;2024-03-02T00:26:59;1.17;;;0.70;;
12591;SDS011;6361;52.120;5.108;2024-03-02T00:29:24;1.00;;;0.60;;
12591;SDS011;6361;52.120;5.108;2024-03-02T00:31:50;2.15;;;0.50;;
12591;SDS011;6361;52.120;5.108;2024-03-02T00:34:16;1.95;;;0.50;;
12591;SDS011;6361;52.120;5.108;2024-03-02T00:36:42;0.40;;;0.40;;
12591;SDS011;6361;52.120;5.108;2024-03-02T00:39:07;1.15;;;0.40;;
12591;SDS011;6361;52.120;5.108;2024-03-02T00:41:33;0.40;;;0.40;;
12591;SDS011;6361;52.120;5.108;2024-03-02T00:46:29;0.63;;;0.47;;
12591;SDS011;6361;52.120;5.108;2024-03-02T00:48:59;0.65;;;0.45;;
12591;SDS011;6361;52.120;5.108;2024-03-02T00:51:26;0.50;;;0.50;;
12591;SDS011;6361;52.120;5.108;2024-03-02T00:53:53;1.73;;;0.88;;
12591;SDS011;6361;52.120;5.108;2024-03-02T00:56:23;1.35;;;0.50;;
12591;SDS011;6361;52.120;5.108;2024-03-02T00:58:49;0.82;;;0.50;;
12591;SDS011;6361;52.120;5.108;2024-03-02T01:01:14;0.40;;;0.40;;
12591;SDS011;6361;52.120;5.108;2024-03-02T01:03:41;0.55;;;0.50;;
12591;SDS011;6361;52.120;5.108;2024-03-02T01:06:06;0.85;;;0.50;;
12591;SDS011;6361;52.120;5.108;2024-03-02T01:08:32;1.02;;;0.70;;
12591;SDS011;6361;52.120;5.108;2024-03-02T01:10:58;0.98;;;0.47;;
12591;SDS011;6361;52.120;5.108;2024-03-02T01:13:24;0.55;;;0.55;;
12591;SDS011;6361;52.120;5.108;2024-03-02T01:15:49;0.65;;;0.50;;
12591;SDS011;6361;52.120;5.108;2024-03-02T01:18:15;1.17;;;0.50;;
12591;SDS011;6361;52.120;5.108;2024-03-02T01:20:40;1.02;;;0.60;;
12591;SDS011;6361;52.120;5.108;2024-03-02T01:23:06;0.75;;;0.65;;
12591;SDS011;6361;52.120;5.108;2024-03-02T01:25:31;0.85;;;0.80;;
12591;SDS011;6361;52.120;5.108;2024-03-02T01:27:57;0.80;;;0.80;;
12591;SDS011;6361;52.120;5.108;2024-03-02T01:30:22;0.98;;;0.57;;
12591;SDS011;6361;52.120;5.108;2024-03-02T01:32:48;0.60;;;0.60;;
12591;SDS011;6361;52.120;5.108;2024-03-02T01:35:13;0.80;;;0.60;;
12591;SDS011;6361;52.120;5.108;2024-03-02T01:37:40;0.73;;;0.60;;
12591;SDS011;6361;52.120;5.108;2024-03-02T01:40:05;1.02;;;0.68;;
12591;SDS011;6361;52.120;5.108;2024-03-02T01:42:37;1.20;;;0.70;;
12591;SDS011;6361;52.120;5.108;2024-03-02T01:45:04;0.50;;;0.50;;
12591;SDS011;6361;52.120;5.108;2024-03-02T01:47:33;1.23;;;0.60;;
12591;SDS011;6361;52.120;5.108;2024-03-02T01:49:58;0.93;;;0.60;;
12591;SDS011;6361;52.120;5.108;2024-03-02T01:52:24;1.10;;;0.70;;
12591;SDS011;6361;52.120;5.108;2024-03-02T01:54:50;1.35;;;0.73;;
12591;SDS011;6361;52.120;5.108;2024-03-02T01:57:15;1.45;;;0.70;;
12591;SDS011;6361;52.120;5.108;2024-03-02T01:59:41;1.23;;;0.80;;
12591;SDS011;6361;52.120;5.108;2024-03-02T02:02:06;1.05;;;0.70;;
12591;SDS011;6361;52.120;5.108;2024-03-02T02:04:32;0.80;;;0.75;;
12591;SDS011;6361;52.120;5.108;2024-03-02T02:06:57;1.23;;;0.88;;
12591;SDS011;6361;52.120;5.108;2024-03-02T02:09:23;0.88;;;0.85;;
12591;SDS011;6361;52.120;5.108;2024-03-02T02:11:50;1.10;;;0.77;;
12591;SDS011;6361;52.120;5.108;2024-03-02T02:14:16;1.17;;;0.80;;
12591;SDS011;6361;52.120;5.108;2024-03-02T02:16:44;0.80;;;0.80;;
12591;SDS011;6361;52.120;5.108;2024-03-02T02:19:10;0.85;;;0.85;;
12591;SDS011;6361;52.120;5.108;2024-03-02T02:21:35;1.25;;;0.80;;
12591;SDS011;6361;52.120;5.108;2024-03-02T02:24:00;1.38;;;0.90;;
12591;SDS011;6361;52.120;5.108;2024-03-02T02:26:28;2.90;;;0.82;;
12591;SDS011;6361;52.120;5.108;2024-03-02T02:28:54;0.90;;;0.80;;
12591;SDS011;6361;52.120;5.108;2024-03-02T02:31:19;1.77;;;0.80;;
12591;SDS011;6361;52.120;5.108;2024-03-02T02:33:44;0.77;;;0.70;;
12591;SDS011;6361;52.120;5.108;2024-03-02T02:36:10;2.40;;;0.80;;
12591;SDS011;6361;52.120;5.108;2024-03-02T02:38:36;0.80;;;0.77;;
12591;SDS011;6361;52.120;5.108;2024-03-02T02:41:04;1.80;;;0.90;;
12591;SDS011;6361;52.120;5.108;2024-03-02T02:43:29;0.82;;;0.82;;
12591;SDS011;6361;52.120;5.108;2024-03-02T02:45:54;3.05;;;1.02;;
12591;SDS011;6361;52.120;5.108;2024-03-02T02:48:20;1.00;;;0.88;;
12591;SDS011;6361;52.120;5.108;2024-03-02T02:50:45;3.13;;;1.00;;
12591;SDS011;6361;52.120;5.108;2024-03-02T02:53:11;2.75;;;1.08;;
12591;SDS011;6361;52.120;5.108;2024-03-02T02:55:36;1.17;;;0.90;;
12591;SDS011;6361;52.120;5.108;2024-03-02T02:58:05;1.50;;;1.00;;
12591;SDS011;6361;52.120;5.108;2024-03-02T03:00:37;1.73;;;0.90;;
12591;SDS011;6361;52.120;5.108;2024-03-02T03:03:02;0.77;;;0.77;;
12591;SDS011;6361;52.120;5.108;2024-03-02T03:05:28;1.00;;;0.90;;
12591;SDS011;6361;52.120;5.108;2024-03-02T03:07:53;1.27;;;0.80;;
12591;SDS011;6361;52.120;5.108;2024-03-02T03:10:19;0.95;;;0.75;;
12591;SDS011;6361;52.120;5.108;2024-03-02T03:12:47;2.50;;;1.00;;
12591;SDS011;6361;52.120;5.108;2024-03-02T03:15:12;1.15;;;0.80;;
12591;SDS011;6361;52.120;5.108;2024-03-02T03:17:38;1.67;;;0.70;;
12591;SDS011;6361;52.120;5.108;2024-03-02T03:20:03;1.02;;;0.70;;
12591;SDS011;6361;52.120;5.108;2024-03-02T03:22:30;1.27;;;0.75;;
12591;SDS011;6361;52.120;5.108;2024-03-02T03:25:00;1.52;;;0.70;;
12591;SDS011;6361;52.120;5.108;2024-03-02T03:27:25;1.10;;;0.63;;
12591;SDS011;6361;52.120;5.108;2024-03-02T03:29:51;1.45;;;0.75;;
12591;SDS011;6361;52.120;5.108;2024-03-02T03:32:17;1.25;;;0.90;;
12591;SDS011;6361;52.120;5.108;2024-03-02T03:34:42;1.05;;;0.70;;
12591;SDS011;6361;52.120;5.108;2024-03-02T03:37:07;0.80;;;0.80;;
12591;SDS011;6361;52.120;5.108;2024-03-02T03:39:33;1.27;;;0.70;;
12591;SDS011;6361;52.120;5.108;2024-03-02T03:41:59;2.10;;;0.80;;
12591;SDS011;6361;52.120;5.108;2024-03-02T03:44:24;0.98;;;0.63;;
12591;SDS011;6361;52.120;5.108;2024-03-02T03:46:50;0.90;;;0.70;;
12591;SDS011;6361;52.120;5.108;2024-03-02T03:49:15;3.80;;;0.73;;
12591;SDS011;6361;52.120;5.108;2024-03-02T03:51:40;0.70;;;0.63;;
12591;SDS011;6361;52.120;5.108;2024-03-02T03:54:06;0.85;;;0.80;;
12591;SDS011;6361;52.120;5.108;2024-03-02T03:56:31;1.58;;;0.80;;
12591;SDS011;6361;52.120;5.108;2024-03-02T03:58:56;1.30;;;0.63;;
12591;SDS011;6361;52.120;5.108;2024-03-02T04:01:22;0.77;;;0.63;;
12591;SDS011;6361;52.120;5.108;2024-03-02T04:03:48;1.25;;;0.70;;
12591;SDS011;6361;52.120;5.108;2024-03-02T04:06:15;2.58;;;0.98;;
12591;SDS011;6361;52.120;5.108;2024-03-02T04:08:42;2.53;;;0.77;;
12591;SDS011;6361;52.120;5.108;2024-03-02T04:11:08;0.95;;;0.73;;
12591;SDS011;6361;52.120;5.108;2024-03-02T04:13:33;2.03;;;0.90;;
12591;SDS011;6361;52.120;5.108;2024-03-02T04:15:59;1.52;;;0.80;;
12591;SDS011;6361;52.120;5.108;2024-03-02T04:18:24;1.13;;;0.70;;
12591;SDS011;6361;52.120;5.108;2024-03-02T04:20:49;1.42;;;0.70;;
12591;SDS011;6361;52.120;5.108;2024-03-02T04:23:15;1.77;;;0.80;;
12591;SDS011;6361;52.120;5.108;2024-03-02T04:25:40;1.75;;;0.70;;
12591;SDS011;6361;52.120;5.108;2024-03-02T04:28:05;1.25;;;0.68;;
12591;SDS011;6361;52.120;5.108;2024-03-02T04:30:33;1.02;;;0.70;;
12591;SDS011;6361;52.120;5.108;2024-03-02T04:32:58;1.77;;;0.95;;
12591;SDS011;6361;52.120;5.108;2024-03-02T04:35:24;0.70;;;0.50;;
12591;SDS011;6361;52.120;5.108;2024-03-02T04:37:50;1.25;;;0.73;;
12591;SDS011;6361;52.120;5.108;2024-03-02T04:40:16;1.45;;;0.70;;
12591;SDS011;6361;52.120;5.108;2024-03-02T04:42:41;1.70;;;0.77;;
12591;SDS011;6361;52.120;5.108;2024-03-02T04:45:07;2.22;;;0.80;;
12591;SDS011;6361;52.120;5.108;2024-03-02T04:47:32;1.50;;;0.60;;
12591;SDS011;6361;52.120;5.108;2024-03-02T04:49:57;0.95;;;0.63;;
12591;SDS011;6361;52.120;5.108;2024-03-02T04:52:23;1.38;;;0.70;;
12591;SDS011;6361;52.120;5.108;2024-03-02T04:54:48;1.27;;;0.60;;
12591;SDS011;6361;52.120;5.108;2024-03-02T04:57:32;1.83;;;0.75;;
12591;SDS011;6361;52.120;5.108;2024-03-02T04:59:58;1.00;;;0.80;;
12591;SDS011;6361;52.120;5.108;2024-03-02T05:02:23;1.27;;;0.80;;
12591;SDS011;6361;52.120;5.108;2024-03-02T05:04:48;1.10;;;0.82;;
12591;SDS011;6361;52.120;5.108;2024-03-02T05:07:14;1.55;;;0.70;;
12591;SDS011;6361;52.120;5.108;2024-03-02T05:09:39;1.42;;;0.90;;
12591;SDS011;6361;52.120;5.108;2024-03-02T05:12:05;1.10;;;0.80;;
12591;SDS011;6361;52.120;5.108;2024-03-02T05:14:42;2.97;;;1.15;;
12591;SDS011;6361;52.120;5.108;2024-03-02T05:17:07;2.03;;;1.08;;
12591;SDS011;6361;52.120;5.108;2024-03-02T05:19:33;1.30;;;0.90;;
12591;SDS011;6361;52.120;5.108;2024-03-02T05:21:58;1.63;;;0.82;;
12591;SDS011;6361;52.120;5.108;2024-03-02T05:24:24;1.75;;;0.95;;
12591;SDS011;6361;52.120;5.108;2024-03-02T05:26:52;2.38;;;0.88;;
12591;SDS011;6361;52.120;5.108;2024-03-02T05:29:17;3.90;;;1.10;;
12591;SDS011;6361;52.120;5.108;2024-03-02T05:31:42;1.45;;;0.77;;
12591;SDS011;6361;52.120;5.108;2024-03-02T05:34:08;2.38;;;0.90;;
12591;SDS011;6361;52.120;5.108;2024-03-02T05:36:33;1.63;;;0.85;;
12591;SDS011;6361;52.120;5.108;2024-03-02T05:38:59;1.05;;;0.70;;
12591;SDS011;6361;52.120;5.108;2024-03-02T05:41:24;2.13;;;0.80;;
12591;SDS011;6361;52.120;5.108;2024-03-02T05:43:49;2.22;;;0.90;;
12591;SDS011;6361;52.120;5.108;2024-03-02T05:46:15;1.20;;;0.80;;
12591;SDS011;6361;52.120;5.108;2024-03-02T05:48:40;0.95;;;0.73;;
12591;SDS011;6361;52.120;5.108;2024-03-02T05:51:05;3.20;;;0.88;;
12591;SDS011;6361;52.120;5.108;2024-03-02T05:53:31;2.28;;;0.70;;
12591;SDS011;6361;52.120;5.108;2024-03-02T05:55:56;1.90;;;0.80;;
12591;SDS011;6361;52.120;5.108;2024-03-02T05:58:22;4.18;;;0.80;;
12591;SDS011;6361;52.120;5.108;2024-03-02T06:00:58;2.63;;;0.88;;
12591;SDS011;6361;52.120;5.108;2024-03-02T06:03:24;2.20;;;0.80;;
12591;SDS011;6361;52.120;5.108;2024-03-02T06:05:49;3.40;;;0.85;;
12591;SDS011;6361;52.120;5.108;2024-03-02T06:08:16;1.45;;;0.68;;
12591;SDS011;6361;52.120;5.108;2024-03-02T06:10:41;1.05;;;0.63;;
12591;SDS011;6361;52.120;5.108;2024-03-02T06:13:06;1.35;;;0.70;;
12591;SDS011;6361;52.120;5.108;2024-03-02T06:15:32;2.55;;;0.70;;
12591;SDS011;6361;52.120;5.108;2024-03-02T06:17:58;2.47;;;0.85;;
12591;SDS011;6361;52.120;5.108;2024-03-02T06:20:23;2.78;;;0.80;;
12591;SDS011;6361;52.120;5.108;2024-03-02T06:22:48;2.33;;;0.80;;
12591;SDS011;6361;52.120;5.108;2024-03-02T06:25:14;2.05;;;0.80;;
12591;SDS011;6361;52.120;5.108;2024-03-02T06:27:39;1.10;;;0.73;;
12591;SDS011;6361;52.120;5.108;2024-03-02T06:30:05;2.10;;;0.75;;
12591;SDS011;6361;52.120;5.108;2024-03-02T06:32:31;2.38;;;0.70;;
12591;SDS011;6361;52.120;5.108;2024-03-02T06:34:56;1.83;;;0.75;;
12591;SDS011;6361;52.120;5.108;2024-03-02T06:37:22;3.17;;;0.77;;
12591;SDS011;6361;52.120;5.108;2024-03-02T06:39:47;2.90;;;0.90;;
12591;SDS011;6361;52.120;5.108;2024-03-02T06:42:12;1.77;;;0.70;;
12591;SDS011;6361;52.120;5.108;2024-03-02T06:44:38;1.92;;;0.70;;
12591;SDS011;6361;52.120;5.108;2024-03-02T06:47:03;4.18;;;1.10;;
12591;SDS011;6361;52.120;5.108;2024-03-02T06:49:29;1.95;;;0.80;;
12591;SDS011;6361;52.120;5.108;2024-03-02T06:51:55;2.15;;;0.90;;
12591;SDS011;6361;52.120;5.108;2024-03-02T06:54:20;2.05;;;0.80;;
12591;SDS011;6361;52.120;5.108;2024-03-02T06:56:46;4.30;;;0.95;;
12591;SDS011;6361;52.120;5.108;2024-03-02T06:59:11;3.70;;;0.80;;
12591;SDS011;6361;52.120;5.108;2024-03-02T07:01:37;5.75;;;0.70;;
12591;SDS011;6361;52.120;5.108;2024-03-02T07:04:02;4.45;;;1.00;;
12591;SDS011;6361;52.120;5.108;2024-03-02T07:06:27;3.00;;;0.80;;
12591;SDS011;6361;52.120;5.108;2024-03-02T07:08:53;1.42;;;0.70;;
12591;SDS011;6361;52.120;5.108;2024-03-02T07:11:18;3.38;;;0.70;;
12591;SDS011;6361;52.120;5.108;2024-03-02T07:13:43;4.65;;;0.95;;
12591;SDS011;6361;52.120;5.108;2024-03-02T07:16:09;1.98;;;0.95;;
12591;SDS011;6361;52.120;5.108;2024-03-02T07:18:54;2.53;;;0.77;;
12591;SDS011;6361;52.120;5.108;2024-03-02T07:21:21;2.33;;;0.80;;
12591;SDS011;6361;52.120;5.108;2024-03-02T07:23:47;3.00;;;0.82;;
12591;SDS011;6361;52.120;5.108;2024-03-02T07:26:13;4.20;;;0.80;;
12591;SDS011;6361;52.120;5.108;2024-03-02T07:28:40;2.40;;;0.80;;
12591;SDS011;6361;52.120;5.108;2024-03-02T07:31:06;2.30;;;0.80;;
12591;SDS011;6361;52.120;5.108;2024-03-02T07:33:32;3.65;;;1.00;;
12591;SDS011;6361;52.120;5.108;2024-03-02T07:35:59;3.08;;;0.80;;
12591;SDS011;6361;52.120;5.108;2024-03-02T07:38:25;1.92;;;0.73;;
12591;SDS011;6361;52.120;5.108;2024-03-02T07:40:51;1.58;;;0.80;;
12591;SDS011;6361;52.120;5.108;2024-03-02T07:43:18;1.40;;;0.70;;
12591;SDS011;6361;52.120;5.108;2024-03-02T07:45:47;2.45;;;0.73;;
12591;SDS011;6361;52.120;5.108;2024-03-02T07:48:13;4.93;;;1.70;;
12591;SDS011;6361;52.120;5.108;2024-03-02T07:50:38;4.40;;;0.80;;
12591;SDS011;6361;52.120;5.108;2024-03-02T07:53:07;4.57;;;1.08;;
12591;SDS011;6361;52.120;5.108;2024-03-02T07:55:33;2.75;;;0.82;;
12591;SDS011;6361;52.120;5.108;2024-03-02T07:57:58;2.15;;;0.90;;
12591;SDS011;6361;52.120;5.108;2024-03-02T08:00:25;2.20;;;0.80;;
12591;SDS011;6361;52.120;5.108;2024-03-02T08:02:51;5.43;;;1.15;;
12591;SDS011;6361;52.120;5.108;2024-03-02T08:05:17;2.30;;;1.02;;
12591;SDS011;6361;52.120;5.108;2024-03-02T08:07:44;2.45;;;0.90;;
12591;SDS011;6361;52.120;5.108;2024-03-02T08:10:10;2.50;;;1.23;;
12591;SDS011;6361;52.120;5.108;2024-03-02T08:12:35;2.85;;;0.85;;
12591;SDS011;6361;52.120;5.108;2024-03-02T08:15:00;5.68;;;0.95;;
12591;SDS011;6361;52.120;5.108;2024-03-02T08:17:26;3.85;;;0.88;;
12591;SDS011;6361;52.120;5.108;2024-03-02T08:19:51;2.28;;;0.80;;
12591;SDS011;6361;52.120;5.108;2024-03-02T08:22:17;1.42;;;0.60;;
12591;SDS011;6361;52.120;5.108;2024-03-02T08:24:43;3.40;;;1.17;;
12591;SDS011;6361;52.120;5.108;2024-03-02T08:27:08;3.78;;;0.82;;
12591;SDS011;6361;52.120;5.108;2024-03-02T08:29:34;2.65;;;0.88;;
12591;SDS011;6361;52.120;5.108;2024-03-02T08:32:00;3.22;;;0.85;;
12591;SDS011;6361;52.120;5.108;2024-03-02T08:34:25;1.55;;;0.70;;
12591;SDS011;6361;52.120;5.108;2024-03-02T08:36:51;3.85;;;0.90;;
12591;SDS011;6361;52.120;5.108;2024-03-02T08:39:16;2.42;;;0.77;;
12591;SDS011;6361;52.120;5.108;2024-03-02T08:41:42;2.33;;;1.00;;
12591;SDS011;6361;52.120;5.108;2024-03-02T08:44:09;3.65;;;0.80;;
12591;SDS011;6361;52.120;5.108;2024-03-02T08:46:34;3.58;;;0.68;;
12591;SDS011;6361;52.120;5.108;2024-03-02T08:49:00;2.00;;;0.80;;
12591;SDS011;6361;52.120;5.108;2024-03-02T08:51:25;3.95;;;1.05;;
12591;SDS011;6361;52.120;5.108;2024-03-02T08:53:51;6.38;;;0.80;;
12591;SDS011;6361;52.120;5.108;2024-03-02T08:56:16;1.92;;;0.82;;
12591;SDS011;6361;52.120;5.108;2024-03-02T08:58:42;1.40;;;0.70;;
12591;SDS011;6361;52.120;5.108;2024-03-02T09:01:08;3.38;;;1.00;;
12591;SDS011;6361;52.120;5.108;2024-03-02T09:03:34;3.03;;;0.95;;
12591;SDS011;6361;52.120;5.108;2024-03-02T09:06:00;5.43;;;0.93;;
12591;SDS011;6361;52.120;5.108;2024-03-02T09:08:25;5.22;;;1.08;;
12591;SDS011;6361;52.120;5.108;2024-03-02T09:10:51;3.95;;;1.17;;
12591;SDS011;6361;52.120;5.108;2024-03-02T09:13:17;3.80;;;1.00;;
12591;SDS011;6361;52.120;5.108;2024-03-02T09:15:42;5.03;;;1.17;;
12591;SDS011;6361;52.120;5.108;2024-03-02T09:18:09;5.60;;;1.27;;
12591;SDS011;6361;52.120;5.108;2024-03-02T09:20:37;4.03;;;0.98;;
12591;SDS011;6361;52.120;5.108;2024-03-02T09:23:02;4.60;;;1.02;;
12591;SDS011;6361;52.120;5.108;2024-03-02T09:25:27;3.08;;;1.10;;
12591;SDS011;6361;52.120;5.108;2024-03-02T09:27:53;2.58;;;0.98;;
12591;SDS011;6361;52.120;5.108;2024-03-02T09:30:18;7.53;;;1.23;;
12591;SDS011;6361;52.120;5.108;2024-03-02T09:32:43;4.80;;;1.05;;
12591;SDS011;6361;52.120;5.108;2024-03-02T09:35:09;3.95;;;1.10;;
12591;SDS011;6361;52.120;5.108;2024-03-02T09:37:34;9.20;;;1.35;;
12591;SDS011;6361;52.120;5.108;2024-03-02T09:40:00;4.45;;;1.00;;
12591;SDS011;6361;52.120;5.108;2024-03-02T09:42:26;4.53;;;1.10;;
12591;SDS011;6361;52.120;5.108;2024-03-02T09:44:51;4.50;;;1.33;;
12591;SDS011;6361;52.120;5.108;2024-03-02T09:47:17;3.65;;;0.90;;
12591;SDS011;6361;52.120;5.108;2024-03-02T09:49:42;7.38;;;1.10;;
12591;SDS011;6361;52.120;5.108;2024-03-02T09:52:08;8.30;;;1.17;;
12591;SDS011;6361;52.120;5.108;2024-03-02T09:54:35;5.78;;;1.00;;
12591;SDS011;6361;52.120;5.108;2024-03-02T09:57:01;4.82;;;1.15;;
12591;SDS011;6361;52.120;5.108;2024-03-02T09:59:27;8.40;;;1.30;;
12591;SDS011;6361;52.120;5.108;2024-03-02T10:04:24;3.83;;;0.90;;
12591;SDS011;6361;52.120;5.108;2024-03-02T10:06:50;4.30;;;1.30;;
12591;SDS011;6361;52.120;5.108;2024-03-02T10:09:26;7.47;;;1.17;;
12591;SDS011;6361;52.120;5.108;2024-03-02T10:11:52;4.25;;;1.13;;
12591;SDS011;6361;52.120;5.108;2024-03-02T10:14:17;5.88;;;1.02;;
12591;SDS011;6361;52.120;5.108;2024-03-02T10:16:43;8.10;;;1.23;;
12591;SDS011;6361;52.120;5.108;2024-03-02T10:21:48;5.45;;;1.17;;
12591;SDS011;6361;52.120;5.108;2024-03-02T10:24:17;6.13;;;1.23;;
12591;SDS011;6361;52.120;5.108;2024-03-02T10:26:42;5.20;;;0.93;;
12591;SDS011;6361;52.120;5.108;2024-03-02T10:29:08;6.68;;;1.50;;
12591;SDS011;6361;52.120;5.108;2024-03-02T10:31:43;6.35;;;1.17;;
12591;SDS011;6361;52.120;5.108;2024-03-02T10:34:10;4.97;;;1.13;;
12591;SDS011;6361;52.120;5.108;2024-03-02T10:36:37;7.07;;;1.25;;
12591;SDS011;6361;52.120;5.108;2024-03-02T10:39:03;7.13;;;1.20;;
12591;SDS011;6361;52.120;5.108;2024-03-02T10:41:32;4.78;;;1.10;;
12591;SDS011;6361;52.120;5.108;2024-03-02T10:44:10;5.85;;;1.40;;
12591;SDS011;6361;52.120;5.108;2024-03-02T10:49:01;7.35;;;1.15;;
12591;SDS011;6361;52.120;5.108;2024-03-02T10:51:29;6.07;;;1.17;;
12591;SDS011;6361;52.120;5.108;2024-03-02T10:53:57;8.30;;;1.10;;
12591;SDS011;6361;52.120;5.108;2024-03-02T10:56:42;6.50;;;1.10;;
12591;SDS011;6361;52.120;5.108;2024-03-02T11:01:45;4.95;;;1.48;;
12591;SDS011;6361;52.120;5.108;2024-03-02T11:04:12;4.90;;;1.00;;
12591;SDS011;6361;52.120;5.108;2024-03-02T11:06:38;3.53;;;1.00;;
12591;SDS011;6361;52.120;5.108;2024-03-02T11:09:06;4.57;;;0.90;;
12591;SDS011;6361;52.120;5.108;2024-03-02T11:11:36;3.55;;;0.98;;
12591;SDS011;6361;52.120;5.108;2024-03-02T11:14:02;4.72;;;1.05;;
12591;SDS011;6361;52.120;5.108;2024-03-02T11:16:36;7.40;;;1.00;;
12591;SDS011;6361;52.120;5.108;2024-03-02T11:19:06;5.30;;;1.23;;
12591;SDS011;6361;52.120;5.108;2024-03-02T11:21:34;5.53;;;1.17;;
12591;SDS011;6361;52.120;5.108;2024-03-02T11:23:59;3.63;;;1.08;;
12591;SDS011;6361;52.120;5.108;2024-03-02T11:26:27;4.53;;;1.15;;
12591;SDS011;6361;52.120;5.108;2024-03-02T11:28:53;4.30;;;1.17;;
12591;SDS011;6361;52.120;5.108;2024-03-02T11:31:20;3.33;;;1.08;;
12591;SDS011;6361;52.120;5.108;2024-03-02T11:33:46;6.00;;;1.23;;
12591;SDS011;6361;52.120;5.108;2024-03-02T11:36:11;2.72;;;1.02;;
12591;SDS011;6361;52.120;5.108;2024-03-02T11:38:37;2.47;;;0.85;;
12591;SDS011;6361;52.120;5.108;2024-03-02T11:41:03;2.50;;;0.80;;
12591;SDS011;6361;52.120;5.108;2024-03-02T11:43:32;4.20;;;0.93;;
12591;SDS011;6361;52.120;5.108;2024-03-02T11:46:01;3.05;;;0.98;;
12591;SDS011;6361;52.120;5.108;2024-03-02T11:48:29;3.03;;;0.90;;
12591;SDS011;6361;52.120;5.108;2024-03-02T11:50:54;5.80;;;0.90;;
12591;SDS011;6361;52.120;5.108;2024-03-02T11:53:23;4.22;;;1.52;;
12591;SDS011;6361;52.120;5.108;2024-03-02T11:55:48;5.38;;;1.20;;
12591;SDS011;6361;52.120;5.108;2024-03-02T11:58:17;2.42;;;0.95;;
12591;SDS011;6361;52.120;5.108;2024-03-02T12:00:43;6.10;;;1.60;;
12591;SDS011;6361;52.120;5.108;2024-03-02T12:03:09;3.22;;;1.10;;
12591;SDS011;6361;52.120;5.108;2024-03-02T12:05:37;3.72;;;1.20;;
12591;SDS011;6361;52.120;5.108;2024-03-02T12:08:03;4.32;;;1.10;;
12591;SDS011;6361;52.120;5.108;2024-03-02T12:10:31;4.28;;;1.10;;
12591;SDS011;6361;52.120;5.108;2024-03-02T12:12:57;4.13;;;1.35;;
12591;SDS011;6361;52.120;5.108;2024-03-02T12:15:24;4.63;;;1.50;;
12591;SDS011;6361;52.120;5.108;2024-03-02T12:17:57;4.55;;;1.30;;
12591;SDS011;6361;52.120;5.108;2024-03-02T12:20:23;5.78;;;1.40;;
12591;SDS011;6361;52.120;5.108;2024-03-02T12:22:54;5.38;;;1.10;;
12591;SDS011;6361;52.120;5.108;2024-03-02T12:25:21;5.80;;;1.30;;
12591;SDS011;6361;52.120;5.108;2024-03-02T12:27:47;5.30;;;1.30;;
12591;SDS011;6361;52.120;5.108;2024-03-02T12:30:17;4.22;;;1.13;;
12591;SDS011;6361;52.120;5.108;2024-03-02T12:32:46;7.47;;;1.10;;
12591;SDS011;6361;52.120;5.108;2024-03-02T12:35:12;5.55;;;1.20;;
12591;SDS011;6361;52.120;5.108;2024-03-02T12:37:49;4.45;;;1.20;;
12591;SDS011;6361;52.120;5.108;2024-03-02T12:40:16;4.63;;;1.15;;
12591;SDS011;6361;52.120;5.108;2024-03-02T12:42:43;3.35;;;1.10;;
12591;SDS011;6361;52.120;5.108;2024-03-02T12:45:09;6.90;;;1.13;;
12591;SDS011;6361;52.120;5.108;2024-03-02T12:47:35;5.18;;;1.27;;
12591;SDS011;6361;52.120;5.108;2024-03-02T12:50:02;2.58;;;1.15;;
12591;SDS011;6361;52.120;5.108;2024-03-02T12:52:29;3.50;;;1.20;;
12591;SDS011;6361;52.120;5.108;2024-03-02T12:54:57;3.10;;;1.10;;
12591;SDS011;6361;52.120;5.108;2024-03-02T12:57:26;6.72;;;1.48;;
12591;SDS011;6361;52.120;5.108;2024-03-02T12:59:52;3.28;;;0.80;;
12591;SDS011;6361;52.120;5.108;2024-03-02T13:02:21;6.32;;;1.10;;
12591;SDS011;6361;52.120;5.108;2024-03-02T13:04:53;5.53;;;1.10;;
12591;SDS011;6361;52.120;5.108;2024-03-02T13:07:22;6.00;;;1.27;;
12591;SDS011;6361;52.120;5.108;2024-03-02T13:09:52;4.43;;;1.23;;
12591;SDS011;6361;52.120;5.108;2024-03-02T13:12:20;3.20;;;1.00;;
12591;SDS011;6361;52.120;5.108;2024-03-02T13:14:48;4.95;;;1.13;;
12591;SDS011;6361;52.120;5.108;2024-03-02T13:17:14;2.63;;;1.10;;
12591;SDS011;6361;52.120;5.108;2024-03-02T13:19:50;2.65;;;0.98;;
12591;SDS011;6361;52.120;5.108;2024-03-02T13:22:17;4.47;;;1.30;;
12591;SDS011;6361;52.120;5.108;2024-03-02T13:24:43;5.10;;;1.25;;
12591;SDS011;6361;52.120;5.108;2024-03-02T13:27:08;3.13;;;1.20;;
12591;SDS011;6361;52.120;5.108;2024-03-02T13:29:33;4.40;;;1.50;;
12591;SDS011;6361;52.120;5.108;2024-03-02T13:31:59;6.53;;;1.48;;
12591;SDS011;6361;52.120;5.108;2024-03-02T13:34:24;3.47;;;1.40;;
12591;SDS011;6361;52.120;5.108;2024-03-02T13:36:50;4.05;;;1.50;;
12591;SDS011;6361;52.120;5.108;2024-03-02T13:39:15;3.80;;;1.25;;
12591;SDS011;6361;52.120;5.108;2024-03-02T13:41:41;5.20;;;1.40;;
12591;SDS011;6361;52.120;5.108;2024-03-02T13:44:07;6.97;;;2.25;;
12591;SDS011;6361;52.120;5.108;2024-03-02T13:46:32;4.03;;;1.88;;
12591;SDS011;6361;52.120;5.108;2024-03-02T13:48:57;5.18;;;1.50;;
12591;SDS011;6361;52.120;5.108;2024-03-02T13:51:23;2.70;;;1.05;;
12591;SDS011;6361;52.120;5.108;2024-03-02T13:53:50;4.30;;;1.33;;
12591;SDS011;6361;52.120;5.108;2024-03-02T13:56:15;4.68;;;1.08;;
12591;SDS011;6361;52.120;5.108;2024-03-02T13:58:42;3.72;;;1.33;;
12591;SDS011;6361;52.120;5.108;2024-03-02T14:01:08;5.97;;;1.65;;
12591;SDS011;6361;52.120;5.108;2024-03-02T14:03:34;4.72;;;1.70;;
12591;SDS011;6361;52.120;5.108;2024-03-02T14:05:59;5.90;;;1.70;;
12591;SDS011;6361;52.120;5.108;2024-03-02T14:08:25;3.75;;;1.30;;
12591;SDS011;6361;52.120;5.108;2024-03-02T14:10:50;5.80;;;1.42;;
12591;SDS011;6361;52.120;5.108;2024-03-02T14:13:18;9.43;;;4.70;;
12591;SDS011;6361;52.120;5.108;2024-03-02T14:15:43;4.72;;;1.70;;
12591;SDS011;6361;52.120;5.108;2024-03-02T14:18:09;5.13;;;1.30;;
12591;SDS011;6361;52.120;5.108;2024-03-02T14:20:37;5.00;;;1.80;;
12591;SDS011;6361;52.120;5.108;2024-03-02T14:23:03;6.35;;;1.50;;
12591;SDS011;6361;52.120;5.108;2024-03-02T14:25:29;7.82;;;1.75;;
12591;SDS011;6361;52.120;5.108;2024-03-02T14:27:58;3.80;;;1.45;;
12591;SDS011;6361;52.120;5.108;2024-03-02T14:30:23;7.90;;;2.10;;
12591;SDS011;6361;52.120;5.108;2024-03-02T14:32:49;8.60;;;2.63;;
12591;SDS011;6361;52.120;5.108;2024-03-02T14:35:14;5.82;;;2.53;;
12591;SDS011;6361;52.120;5.108;2024-03-02T14:37:40;6.60;;;1.85;;
12591;SDS011;6361;52.120;5.108;2024-03-02T14:40:05;7.68;;;2.05;;
12591;SDS011;6361;52.120;5.108;2024-03-02T14:42:33;5.75;;;1.77;;
12591;SDS011;6361;52.120;5.108;2024-03-02T14:44:59;6.50;;;2.78;;
12591;SDS011;6361;52.120;5.108;2024-03-02T14:47:24;5.18;;;2.08;;
12591;SDS011;6361;52.120;5.108;2024-03-02T14:49:49;8.05;;;2.42;;
12591;SDS011;6361;52.120;5.108;2024-03-02T14:52:15;5.05;;;1.75;;
12591;SDS011;6361;52.120;5.108;2024-03-02T14:54:42;4.70;;;2.13;;
12591;SDS011;6361;52.120;5.108;2024-03-02T14:57:07;5.35;;;2.10;;
12591;SDS011;6361;52.120;5.108;2024-03-02T14:59:33;4.43;;;1.30;;
12591;SDS011;6361;52.120;5.108;2024-03-02T15:01:58;4.82;;;1.73;;
12591;SDS011;6361;52.120;5.108;2024-03-02T15:04:24;6.07;;;1.55;;
12591;SDS011;6361;52.120;5.108;2024-03-02T15:06:49;4.07;;;1.58;;
12591;SDS011;6361;52.120;5.108;2024-03-02T15:09:14;4.82;;;1.40;;
12591;SDS011;6361;52.120;5.108;2024-03-02T15:11:43;5.18;;;2.00;;